sensor_id;sensor_type;location;lat;lon;timestamp;P1;durP1;ratioP1;P2;durP2;ratioP2
36817;SDS011;22761;51.542;16.450;2024-02-23T00:01:19;3.90;;;2.40;;
36817;SDS011;22761;51.542;16.450;2024-02-23T00:03:47;4.00;;;2.30;;
36817;SDS011;22761;51.542;16.450;2024-02-23T00:06:15;4.20;;;2.70;;
36817;SDS011;22761;51.542;16.450;2024-02-23T00:08:44;3.70;;;2.40;;
36817;SDS011;22761;51.542;16.450;2024-02-23T00:11:12;4.30;;;2.30;;
36817;SDS011;22761;51.542;16.450;2024-02-23T00:13:40;5.10;;;2.60;;
36817;SDS011;22761;51.542;16.450;2024-02-23T00:16:09;6.00;;;2.40;;
36817;SDS011;22761;51.542;16.450;2024-02-23T00:18:37;4.60;;;2.40;;
36817;SDS011;22761;51.542;16.450;2024-02-23T00:21:06;5.70;;;2.40;;
36817;SDS011;22761;51.542;16.450;2024-02-23T00:23:34;7.70;;;2.70;;
36817;SDS011;22761;51.542;16.450;2024-02-23T00:26:03;5.00;;;2.50;;
36817;SDS011;22761;51.542;16.450;2024-02-23T00:28:31;5.30;;;2.30;;
36817;SDS011;22761;51.542;16.450;2024-02-23T00:30:59;5.20;;;2.50;;
36817;SDS011;22761;51.542;16.450;2024-02-23T00:33:28;4.60;;;2.60;;
36817;SDS011;22761;51.542;16.450;2024-02-23T00:35:56;5.10;;;2.20;;
36817;SDS011;22761;51.542;16.450;2024-02-23T00:38:24;5.80;;;2.60;;
36817;SDS011;22761;51.542;16.450;2024-02-23T00:40:52;5.10;;;2.20;;
36817;SDS011;22761;51.542;16.450;2024-02-23T00:43:21;4.00;;;2.10;;
36817;SDS011;22761;51.542;16.450;2024-02-23T00:45:49;3.80;;;1.50;;
36817;SDS011;22761;51.542;16.450;2024-02-23T00:48:17;3.80;;;1.60;;
36817;SDS011;22761;51.542;16.450;2024-02-23T00:50:46;3.50;;;1.60;;
36817;SDS011;22761;51.542;16.450;2024-02-23T00:53:14;4.30;;;1.60;;
36817;SDS011;22761;51.542;16.450;2024-02-23T00:55:43;5.80;;;1.70;;
36817;SDS011;22761;51.542;16.450;2024-02-23T00:58:11;1.80;;;1.20;;
36817;SDS011;22761;51.542;16.450;2024-02-23T01:00:39;3.20;;;1.60;;
36817;SDS011;22761;51.542;16.450;2024-02-23T01:03:08;3.30;;;1.50;;
36817;SDS011;22761;51.542;16.450;2024-02-23T01:05:36;2.10;;;1.30;;
36817;SDS011;22761;51.542;16.450;2024-02-23T01:08:06;3.00;;;1.50;;
36817;SDS011;22761;51.542;16.450;2024-02-23T01:10:34;2.10;;;1.20;;
36817;SDS011;22761;51.542;16.450;2024-02-23T01:13:03;3.10;;;1.30;;
36817;SDS011;22761;51.542;16.450;2024-02-23T01:15:33;2.90;;;1.40;;
36817;SDS011;22761;51.542;16.450;2024-02-23T01:18:03;3.60;;;1.30;;
36817;SDS011;22761;51.542;16.450;2024-02-23T01:20:32;2.90;;;1.10;;
36817;SDS011;22761;51.542;16.450;2024-02-23T01:23:00;3.50;;;1.80;;
36817;SDS011;22761;51.542;16.450;2024-02-23T01:25:28;3.80;;;1.60;;
36817;SDS011;22761;51.542;16.450;2024-02-23T01:27:56;4.70;;;2.00;;
36817;SDS011;22761;51.542;16.450;2024-02-23T01:30:25;3.90;;;1.80;;
36817;SDS011;22761;51.542;16.450;2024-02-23T01:32:53;3.10;;;1.20;;
36817;SDS011;22761;51.542;16.450;2024-02-23T01:35:21;3.20;;;1.40;;
36817;SDS011;22761;51.542;16.450;2024-02-23T01:37:50;1.50;;;0.80;;
36817;SDS011;22761;51.542;16.450;2024-02-23T01:40:18;2.90;;;1.40;;
36817;SDS011;22761;51.542;16.450;2024-02-23T01:42:47;2.90;;;1.30;;
36817;SDS011;22761;51.542;16.450;2024-02-23T01:45:15;2.50;;;1.10;;
36817;SDS011;22761;51.542;16.450;2024-02-23T01:47:43;1.90;;;0.80;;
36817;SDS011;22761;51.542;16.450;2024-02-23T01:50:12;1.60;;;0.90;;
36817;SDS011;22761;51.542;16.450;2024-02-23T01:52:41;4.90;;;1.40;;
36817;SDS011;22761;51.542;16.450;2024-02-23T01:55:09;1.60;;;0.90;;
36817;SDS011;22761;51.542;16.450;2024-02-23T01:57:37;2.00;;;1.10;;
36817;SDS011;22761;51.542;16.450;2024-02-23T02:00:18;1.50;;;0.80;;
36817;SDS011;22761;51.542;16.450;2024-02-23T02:02:52;1.70;;;0.80;;
36817;SDS011;22761;51.542;16.450;2024-02-23T02:05:21;2.10;;;1.00;;
36817;SDS011;22761;51.542;16.450;2024-02-23T02:07:49;1.80;;;0.80;;
36817;SDS011;22761;51.542;16.450;2024-02-23T02:10:22;1.00;;;0.50;;
36817;SDS011;22761;51.542;16.450;2024-02-23T02:12:50;1.70;;;0.70;;
36817;SDS011;22761;51.542;16.450;2024-02-23T02:15:19;1.40;;;0.70;;
36817;SDS011;22761;51.542;16.450;2024-02-23T02:17:49;2.10;;;0.90;;
36817;SDS011;22761;51.542;16.450;2024-02-23T02:20:18;1.50;;;0.90;;
36817;SDS011;22761;51.542;16.450;2024-02-23T02:22:56;4.00;;;1.20;;
36817;SDS011;22761;51.542;16.450;2024-02-23T02:25:25;1.70;;;0.70;;
36817;SDS011;22761;51.542;16.450;2024-02-23T02:27:53;2.00;;;0.90;;
36817;SDS011;22761;51.542;16.450;2024-02-23T02:30:21;1.60;;;1.00;;
36817;SDS011;22761;51.542;16.450;2024-02-23T02:32:49;1.20;;;0.70;;
36817;SDS011;22761;51.542;16.450;2024-02-23T02:35:18;1.00;;;0.80;;
36817;SDS011;22761;51.542;16.450;2024-02-23T02:37:46;1.30;;;0.80;;
36817;SDS011;22761;51.542;16.450;2024-02-23T02:40:16;1.40;;;1.00;;
36817;SDS011;22761;51.542;16.450;2024-02-23T02:42:44;2.20;;;1.10;;
36817;SDS011;22761;51.542;16.450;2024-02-23T02:45:12;2.50;;;1.00;;
36817;SDS011;22761;51.542;16.450;2024-02-23T02:47:41;1.80;;;1.00;;
36817;SDS011;22761;51.542;16.450;2024-02-23T02:50:09;1.50;;;0.80;;
36817;SDS011;22761;51.542;16.450;2024-02-23T02:52:38;1.60;;;1.00;;
36817;SDS011;22761;51.542;16.450;2024-02-23T02:55:06;0.80;;;0.60;;
36817;SDS011;22761;51.542;16.450;2024-02-23T02:57:35;1.30;;;0.80;;
36817;SDS011;22761;51.542;16.450;2024-02-23T03:00:04;1.70;;;0.90;;
36817;SDS011;22761;51.542;16.450;2024-02-23T03:02:37;2.00;;;1.00;;
36817;SDS011;22761;51.542;16.450;2024-02-23T03:05:06;1.30;;;0.70;;
36817;SDS011;22761;51.542;16.450;2024-02-23T03:07:35;1.30;;;0.90;;
36817;SDS011;22761;51.542;16.450;2024-02-23T03:10:03;2.30;;;1.20;;
36817;SDS011;22761;51.542;16.450;2024-02-23T03:12:32;0.60;;;0.50;;
36817;SDS011;22761;51.542;16.450;2024-02-23T03:15:00;2.20;;;0.70;;
36817;SDS011;22761;51.542;16.450;2024-02-23T03:19:59;1.00;;;0.70;;
36817;SDS011;22761;51.542;16.450;2024-02-23T03:22:28;1.20;;;0.80;;
36817;SDS011;22761;51.542;16.450;2024-02-23T03:24:56;1.10;;;0.70;;
36817;SDS011;22761;51.542;16.450;2024-02-23T03:27:27;1.10;;;0.70;;
36817;SDS011;22761;51.542;16.450;2024-02-23T03:29:57;2.00;;;0.70;;
36817;SDS011;22761;51.542;16.450;2024-02-23T03:32:25;1.30;;;0.60;;
36817;SDS011;22761;51.542;16.450;2024-02-23T03:34:53;1.30;;;0.90;;
36817;SDS011;22761;51.542;16.450;2024-02-23T03:37:22;0.70;;;0.50;;
36817;SDS011;22761;51.542;16.450;2024-02-23T03:39:50;1.40;;;0.80;;
36817;SDS011;22761;51.542;16.450;2024-02-23T03:42:18;1.20;;;0.70;;
36817;SDS011;22761;51.542;16.450;2024-02-23T03:44:46;1.40;;;0.80;;
36817;SDS011;22761;51.542;16.450;2024-02-23T03:47:15;1.70;;;0.80;;
36817;SDS011;22761;51.542;16.450;2024-02-23T03:49:44;1.40;;;0.80;;
36817;SDS011;22761;51.542;16.450;2024-02-23T03:52:12;3.00;;;0.90;;
36817;SDS011;22761;51.542;16.450;2024-02-23T03:54:40;0.70;;;0.60;;
36817;SDS011;22761;51.542;16.450;2024-02-23T03:57:08;1.40;;;0.90;;
36817;SDS011;22761;51.542;16.450;2024-02-23T03:59:36;0.90;;;0.60;;
36817;SDS011;22761;51.542;16.450;2024-02-23T04:02:05;1.30;;;0.80;;
36817;SDS011;22761;51.542;16.450;2024-02-23T04:04:34;0.70;;;0.70;;
36817;SDS011;22761;51.542;16.450;2024-02-23T04:07:02;1.60;;;0.80;;
36817;SDS011;22761;51.542;16.450;2024-02-23T04:09:30;1.00;;;0.60;;
36817;SDS011;22761;51.542;16.450;2024-02-23T04:11:59;1.20;;;0.60;;
36817;SDS011;22761;51.542;16.450;2024-02-23T04:14:28;1.50;;;1.00;;
36817;SDS011;22761;51.542;16.450;2024-02-23T04:16:56;1.70;;;0.70;;
36817;SDS011;22761;51.542;16.450;2024-02-23T04:19:25;0.70;;;0.50;;
36817;SDS011;22761;51.542;16.450;2024-02-23T04:21:53;1.70;;;0.80;;
36817;SDS011;22761;51.542;16.450;2024-02-23T04:24:21;1.20;;;0.60;;
36817;SDS011;22761;51.542;16.450;2024-02-23T04:26:53;0.90;;;0.60;;
36817;SDS011;22761;51.542;16.450;2024-02-23T04:29:21;0.80;;;0.80;;
36817;SDS011;22761;51.542;16.450;2024-02-23T04:31:50;1.20;;;0.60;;
36817;SDS011;22761;51.542;16.450;2024-02-23T04:34:18;1.00;;;0.60;;
36817;SDS011;22761;51.542;16.450;2024-02-23T04:36:46;0.80;;;0.50;;
36817;SDS011;22761;51.542;16.450;2024-02-23T04:39:14;1.30;;;0.80;;
36817;SDS011;22761;51.542;16.450;2024-02-23T04:41:43;1.70;;;0.60;;
36817;SDS011;22761;51.542;16.450;2024-02-23T04:44:11;2.50;;;1.10;;
36817;SDS011;22761;51.542;16.450;2024-02-23T04:46:39;2.30;;;0.80;;
36817;SDS011;22761;51.542;16.450;2024-02-23T04:49:08;1.70;;;0.90;;
36817;SDS011;22761;51.542;16.450;2024-02-23T04:51:36;1.60;;;0.70;;
36817;SDS011;22761;51.542;16.450;2024-02-23T04:54:04;1.50;;;0.90;;
36817;SDS011;22761;51.542;16.450;2024-02-23T04:56:32;3.50;;;1.00;;
36817;SDS011;22761;51.542;16.450;2024-02-23T04:59:01;1.70;;;1.00;;
36817;SDS011;22761;51.542;16.450;2024-02-23T05:01:34;2.10;;;1.30;;
36817;SDS011;22761;51.542;16.450;2024-02-23T05:04:03;1.80;;;1.00;;
36817;SDS011;22761;51.542;16.450;2024-02-23T05:06:32;1.40;;;0.90;;
36817;SDS011;22761;51.542;16.450;2024-02-23T05:09:01;1.40;;;0.80;;
36817;SDS011;22761;51.542;16.450;2024-02-23T05:11:30;1.50;;;1.00;;
36817;SDS011;22761;51.542;16.450;2024-02-23T05:13:59;1.40;;;0.80;;
36817;SDS011;22761;51.542;16.450;2024-02-23T05:16:27;1.80;;;0.90;;
36817;SDS011;22761;51.542;16.450;2024-02-23T05:18:56;1.60;;;1.20;;
36817;SDS011;22761;51.542;16.450;2024-02-23T05:21:24;1.30;;;1.00;;
36817;SDS011;22761;51.542;16.450;2024-02-23T05:23:54;1.30;;;0.90;;
36817;SDS011;22761;51.542;16.450;2024-02-23T05:26:22;2.30;;;1.10;;
36817;SDS011;22761;51.542;16.450;2024-02-23T05:28:50;2.20;;;1.60;;
36817;SDS011;22761;51.542;16.450;2024-02-23T05:31:18;2.00;;;1.20;;
36817;SDS011;22761;51.542;16.450;2024-02-23T05:33:47;7.80;;;3.90;;
36817;SDS011;22761;51.542;16.450;2024-02-23T05:36:16;4.00;;;1.80;;
36817;SDS011;22761;51.542;16.450;2024-02-23T05:38:46;2.10;;;1.50;;
36817;SDS011;22761;51.542;16.450;2024-02-23T05:41:14;4.80;;;1.90;;
36817;SDS011;22761;51.542;16.450;2024-02-23T05:43:43;2.60;;;1.00;;
36817;SDS011;22761;51.542;16.450;2024-02-23T05:46:12;3.80;;;1.00;;
36817;SDS011;22761;51.542;16.450;2024-02-23T05:48:40;1.40;;;0.90;;
36817;SDS011;22761;51.542;16.450;2024-02-23T05:51:08;1.90;;;0.70;;
36817;SDS011;22761;51.542;16.450;2024-02-23T05:53:36;1.60;;;1.00;;
36817;SDS011;22761;51.542;16.450;2024-02-23T05:56:04;2.00;;;0.90;;
36817;SDS011;22761;51.542;16.450;2024-02-23T05:58:33;1.90;;;0.80;;
36817;SDS011;22761;51.542;16.450;2024-02-23T06:01:02;1.00;;;0.60;;
36817;SDS011;22761;51.542;16.450;2024-02-23T06:03:30;1.60;;;0.90;;
36817;SDS011;22761;51.542;16.450;2024-02-23T06:05:58;1.90;;;0.70;;
36817;SDS011;22761;51.542;16.450;2024-02-23T06:08:27;1.40;;;0.70;;
36817;SDS011;22761;51.542;16.450;2024-02-23T06:10:55;1.70;;;0.90;;
36817;SDS011;22761;51.542;16.450;2024-02-23T06:13:23;4.10;;;0.90;;
36817;SDS011;22761;51.542;16.450;2024-02-23T06:15:51;2.70;;;1.10;;
36817;SDS011;22761;51.542;16.450;2024-02-23T06:18:20;1.50;;;0.80;;
36817;SDS011;22761;51.542;16.450;2024-02-23T06:20:51;2.00;;;0.60;;
36817;SDS011;22761;51.542;16.450;2024-02-23T06:23:20;1.30;;;0.60;;
36817;SDS011;22761;51.542;16.450;2024-02-23T06:25:49;2.30;;;1.10;;
36817;SDS011;22761;51.542;16.450;2024-02-23T06:28:18;3.70;;;1.70;;
36817;SDS011;22761;51.542;16.450;2024-02-23T06:30:46;2.90;;;1.40;;
36817;SDS011;22761;51.542;16.450;2024-02-23T06:33:14;4.80;;;1.70;;
36817;SDS011;22761;51.542;16.450;2024-02-23T06:35:43;5.00;;;1.90;;
36817;SDS011;22761;51.542;16.450;2024-02-23T06:38:11;3.10;;;1.70;;
36817;SDS011;22761;51.542;16.450;2024-02-23T06:40:39;2.80;;;1.20;;
36817;SDS011;22761;51.542;16.450;2024-02-23T06:43:18;1.90;;;1.10;;
36817;SDS011;22761;51.542;16.450;2024-02-23T06:45:50;1.10;;;0.70;;
36817;SDS011;22761;51.542;16.450;2024-02-23T06:48:19;1.10;;;0.70;;
36817;SDS011;22761;51.542;16.450;2024-02-23T06:50:47;1.00;;;0.50;;
36817;SDS011;22761;51.542;16.450;2024-02-23T06:53:16;3.00;;;0.90;;
36817;SDS011;22761;51.542;16.450;2024-02-23T06:55:44;4.40;;;1.70;;
36817;SDS011;22761;51.542;16.450;2024-02-23T06:58:12;5.30;;;2.10;;
36817;SDS011;22761;51.542;16.450;2024-02-23T07:00:42;1.70;;;0.40;;
36817;SDS011;22761;51.542;16.450;2024-02-23T07:03:10;3.90;;;1.00;;
36817;SDS011;22761;51.542;16.450;2024-02-23T07:05:39;1.30;;;0.60;;
36817;SDS011;22761;51.542;16.450;2024-02-23T07:08:08;1.20;;;0.40;;
36817;SDS011;22761;51.542;16.450;2024-02-23T07:10:36;1.60;;;0.70;;
36817;SDS011;22761;51.542;16.450;2024-02-23T07:13:04;6.70;;;4.70;;
36817;SDS011;22761;51.542;16.450;2024-02-23T07:15:34;10.20;;;2.40;;
36817;SDS011;22761;51.542;16.450;2024-02-23T07:18:04;20.90;;;11.90;;
36817;SDS011;22761;51.542;16.450;2024-02-23T07:20:33;20.80;;;11.20;;
36817;SDS011;22761;51.542;16.450;2024-02-23T07:23:01;7.00;;;2.90;;
36817;SDS011;22761;51.542;16.450;2024-02-23T07:25:29;11.10;;;5.80;;
36817;SDS011;22761;51.542;16.450;2024-02-23T07:27:58;47.60;;;25.80;;
36817;SDS011;22761;51.542;16.450;2024-02-23T07:30:26;19.10;;;9.20;;
36817;SDS011;22761;51.542;16.450;2024-02-23T07:32:54;13.00;;;6.80;;
36817;SDS011;22761;51.542;16.450;2024-02-23T07:35:23;14.60;;;8.80;;
36817;SDS011;22761;51.542;16.450;2024-02-23T07:37:51;7.40;;;3.30;;
36817;SDS011;22761;51.542;16.450;2024-02-23T07:40:20;0.70;;;0.50;;
36817;SDS011;22761;51.542;16.450;2024-02-23T07:42:49;2.20;;;1.00;;
36817;SDS011;22761;51.542;16.450;2024-02-23T07:45:17;13.60;;;7.40;;
36817;SDS011;22761;51.542;16.450;2024-02-23T07:47:46;18.80;;;11.30;;
36817;SDS011;22761;51.542;16.450;2024-02-23T07:50:14;8.90;;;5.00;;
36817;SDS011;22761;51.542;16.450;2024-02-23T07:52:44;1.60;;;0.80;;
36817;SDS011;22761;51.542;16.450;2024-02-23T07:55:12;4.40;;;2.10;;
36817;SDS011;22761;51.542;16.450;2024-02-23T07:57:44;2.50;;;1.30;;
36817;SDS011;22761;51.542;16.450;2024-02-23T08:00:12;2.70;;;0.90;;
36817;SDS011;22761;51.542;16.450;2024-02-23T08:02:40;3.60;;;2.00;;
36817;SDS011;22761;51.542;16.450;2024-02-23T08:05:09;2.30;;;1.20;;
36817;SDS011;22761;51.542;16.450;2024-02-23T08:07:38;2.10;;;1.70;;
36817;SDS011;22761;51.542;16.450;2024-02-23T08:10:06;2.00;;;1.30;;
36817;SDS011;22761;51.542;16.450;2024-02-23T08:12:35;0.90;;;0.60;;
36817;SDS011;22761;51.542;16.450;2024-02-23T08:15:08;0.30;;;0.20;;
36817;SDS011;22761;51.542;16.450;2024-02-23T08:17:36;1.10;;;0.70;;
36817;SDS011;22761;51.542;16.450;2024-02-23T08:20:05;0.60;;;0.20;;
36817;SDS011;22761;51.542;16.450;2024-02-23T08:22:34;0.80;;;0.50;;
36817;SDS011;22761;51.542;16.450;2024-02-23T08:25:02;2.30;;;1.10;;
36817;SDS011;22761;51.542;16.450;2024-02-23T08:27:31;3.70;;;2.00;;
36817;SDS011;22761;51.542;16.450;2024-02-23T08:29:59;6.50;;;4.20;;
36817;SDS011;22761;51.542;16.450;2024-02-23T08:32:27;1.30;;;0.80;;
36817;SDS011;22761;51.542;16.450;2024-02-23T08:34:56;5.60;;;3.00;;
36817;SDS011;22761;51.542;16.450;2024-02-23T08:37:28;5.30;;;2.60;;
36817;SDS011;22761;51.542;16.450;2024-02-23T08:39:56;15.50;;;8.60;;
36817;SDS011;22761;51.542;16.450;2024-02-23T08:42:24;2.80;;;1.50;;
36817;SDS011;22761;51.542;16.450;2024-02-23T08:44:52;18.80;;;9.90;;
36817;SDS011;22761;51.542;16.450;2024-02-23T08:47:23;3.60;;;0.80;;
36817;SDS011;22761;51.542;16.450;2024-02-23T08:49:51;5.90;;;2.80;;
36817;SDS011;22761;51.542;16.450;2024-02-23T08:52:19;5.50;;;3.20;;
36817;SDS011;22761;51.542;16.450;2024-02-23T08:54:47;5.50;;;3.10;;
36817;SDS011;22761;51.542;16.450;2024-02-23T08:57:15;0.60;;;0.30;;
36817;SDS011;22761;51.542;16.450;2024-02-23T08:59:47;0.60;;;0.20;;
36817;SDS011;22761;51.542;16.450;2024-02-23T09:02:15;1.20;;;0.50;;
36817;SDS011;22761;51.542;16.450;2024-02-23T09:04:43;0.50;;;0.30;;
36817;SDS011;22761;51.542;16.450;2024-02-23T09:07:13;0.90;;;0.40;;
36817;SDS011;22761;51.542;16.450;2024-02-23T09:09:42;0.60;;;0.20;;
36817;SDS011;22761;51.542;16.450;2024-02-23T09:12:10;3.30;;;0.50;;
36817;SDS011;22761;51.542;16.450;2024-02-23T09:14:39;1.80;;;0.40;;
36817;SDS011;22761;51.542;16.450;2024-02-23T09:19:39;1.40;;;0.70;;
36817;SDS011;22761;51.542;16.450;2024-02-23T09:22:07;1.80;;;0.60;;
36817;SDS011;22761;51.542;16.450;2024-02-23T09:24:38;1.60;;;0.60;;
36817;SDS011;22761;51.542;16.450;2024-02-23T09:27:07;1.30;;;0.70;;
36817;SDS011;22761;51.542;16.450;2024-02-23T09:29:36;2.80;;;0.80;;
36817;SDS011;22761;51.542;16.450;2024-02-23T09:32:05;6.00;;;3.00;;
36817;SDS011;22761;51.542;16.450;2024-02-23T09:34:34;3.10;;;1.10;;
36817;SDS011;22761;51.542;16.450;2024-02-23T09:37:02;1.80;;;0.90;;
36817;SDS011;22761;51.542;16.450;2024-02-23T09:39:30;1.50;;;0.60;;
36817;SDS011;22761;51.542;16.450;2024-02-23T09:41:59;1.00;;;0.70;;
36817;SDS011;22761;51.542;16.450;2024-02-23T09:44:34;1.10;;;0.40;;
36817;SDS011;22761;51.542;16.450;2024-02-23T09:47:03;4.00;;;1.80;;
36817;SDS011;22761;51.542;16.450;2024-02-23T09:49:39;2.10;;;0.30;;
36817;SDS011;22761;51.542;16.450;2024-02-23T09:52:08;1.00;;;0.20;;
36817;SDS011;22761;51.542;16.450;2024-02-23T09:54:37;2.40;;;1.00;;
36817;SDS011;22761;51.542;16.450;2024-02-23T09:57:09;7.10;;;3.50;;
36817;SDS011;22761;51.542;16.450;2024-02-23T09:59:37;1.30;;;0.60;;
36817;SDS011;22761;51.542;16.450;2024-02-23T10:02:07;1.10;;;0.30;;
36817;SDS011;22761;51.542;16.450;2024-02-23T10:04:39;1.60;;;0.30;;
36817;SDS011;22761;51.542;16.450;2024-02-23T10:07:08;1.10;;;0.30;;
36817;SDS011;22761;51.542;16.450;2024-02-23T10:09:37;6.20;;;2.40;;
36817;SDS011;22761;51.542;16.450;2024-02-23T10:12:06;2.80;;;1.00;;
36817;SDS011;22761;51.542;16.450;2024-02-23T10:14:36;1.70;;;0.50;;
36817;SDS011;22761;51.542;16.450;2024-02-23T10:17:05;4.00;;;1.00;;
36817;SDS011;22761;51.542;16.450;2024-02-23T10:19:34;3.30;;;2.10;;
36817;SDS011;22761;51.542;16.450;2024-02-23T10:22:03;2.00;;;0.40;;
36817;SDS011;22761;51.542;16.450;2024-02-23T10:24:32;1.60;;;1.00;;
36817;SDS011;22761;51.542;16.450;2024-02-23T10:27:01;1.00;;;0.70;;
36817;SDS011;22761;51.542;16.450;2024-02-23T10:29:30;1.70;;;0.40;;
36817;SDS011;22761;51.542;16.450;2024-02-23T10:31:58;1.00;;;0.20;;
36817;SDS011;22761;51.542;16.450;2024-02-23T10:34:28;1.40;;;0.70;;
36817;SDS011;22761;51.542;16.450;2024-02-23T10:36:57;3.50;;;0.60;;
36817;SDS011;22761;51.542;16.450;2024-02-23T10:39:26;2.40;;;1.10;;
36817;SDS011;22761;51.542;16.450;2024-02-23T10:41:57;5.60;;;3.80;;
36817;SDS011;22761;51.542;16.450;2024-02-23T10:44:31;6.70;;;3.50;;
36817;SDS011;22761;51.542;16.450;2024-02-23T10:47:00;3.10;;;1.60;;
36817;SDS011;22761;51.542;16.450;2024-02-23T10:49:28;1.90;;;0.80;;
36817;SDS011;22761;51.542;16.450;2024-02-23T10:51:58;1.00;;;0.70;;
36817;SDS011;22761;51.542;16.450;2024-02-23T10:54:26;1.20;;;0.60;;
36817;SDS011;22761;51.542;16.450;2024-02-23T10:56:55;0.70;;;0.30;;
36817;SDS011;22761;51.542;16.450;2024-02-23T10:59:24;1.60;;;0.30;;
36817;SDS011;22761;51.542;16.450;2024-02-23T11:01:52;1.50;;;0.90;;
36817;SDS011;22761;51.542;16.450;2024-02-23T11:04:22;1.20;;;0.70;;
36817;SDS011;22761;51.542;16.450;2024-02-23T11:06:54;1.30;;;1.00;;
36817;SDS011;22761;51.542;16.450;2024-02-23T11:09:24;2.50;;;0.70;;
36817;SDS011;22761;51.542;16.450;2024-02-23T11:11:56;0.80;;;0.20;;
36817;SDS011;22761;51.542;16.450;2024-02-23T11:14:30;2.10;;;0.60;;
36817;SDS011;22761;51.542;16.450;2024-02-23T11:17:05;1.30;;;1.00;;
36817;SDS011;22761;51.542;16.450;2024-02-23T11:19:37;2.10;;;1.10;;
36817;SDS011;22761;51.542;16.450;2024-02-23T11:22:10;1.70;;;0.70;;
36817;SDS011;22761;51.542;16.450;2024-02-23T11:24:50;1.50;;;0.80;;
36817;SDS011;22761;51.542;16.450;2024-02-23T11:27:22;2.30;;;1.40;;
36817;SDS011;22761;51.542;16.450;2024-02-23T11:29:59;1.20;;;1.00;;
36817;SDS011;22761;51.542;16.450;2024-02-23T11:35:08;5.00;;;2.40;;
36817;SDS011;22761;51.542;16.450;2024-02-23T11:40:19;2.60;;;0.80;;
36817;SDS011;22761;51.542;16.450;2024-02-23T11:42:48;5.20;;;1.80;;
36817;SDS011;22761;51.542;16.450;2024-02-23T11:45:16;1.80;;;0.90;;
36817;SDS011;22761;51.542;16.450;2024-02-23T11:47:44;3.70;;;2.20;;
36817;SDS011;22761;51.542;16.450;2024-02-23T11:50:13;1.70;;;0.90;;
36817;SDS011;22761;51.542;16.450;2024-02-23T11:52:47;0.90;;;0.40;;
36817;SDS011;22761;51.542;16.450;2024-02-23T11:55:19;1.90;;;1.00;;
36817;SDS011;22761;51.542;16.450;2024-02-23T11:57:51;1.80;;;1.40;;
36817;SDS011;22761;51.542;16.450;2024-02-23T12:00:32;2.30;;;0.80;;
36817;SDS011;22761;51.542;16.450;2024-02-23T12:03:01;3.40;;;1.60;;
36817;SDS011;22761;51.542;16.450;2024-02-23T12:05:29;3.70;;;1.20;;
36817;SDS011;22761;51.542;16.450;2024-02-23T12:07:57;2.80;;;1.20;;
36817;SDS011;22761;51.542;16.450;2024-02-23T12:10:26;4.80;;;3.00;;
36817;SDS011;22761;51.542;16.450;2024-02-23T12:12:55;2.60;;;1.70;;
36817;SDS011;22761;51.542;16.450;2024-02-23T12:15:24;6.10;;;3.00;;
36817;SDS011;22761;51.542;16.450;2024-02-23T12:17:53;3.20;;;1.10;;
36817;SDS011;22761;51.542;16.450;2024-02-23T12:20:21;2.70;;;1.40;;
36817;SDS011;22761;51.542;16.450;2024-02-23T12:22:50;1.90;;;1.10;;
36817;SDS011;22761;51.542;16.450;2024-02-23T12:25:18;2.40;;;0.70;;
36817;SDS011;22761;51.542;16.450;2024-02-23T12:27:46;2.20;;;0.80;;
36817;SDS011;22761;51.542;16.450;2024-02-23T12:30:15;1.90;;;0.60;;
36817;SDS011;22761;51.542;16.450;2024-02-23T12:32:44;1.00;;;0.40;;
36817;SDS011;22761;51.542;16.450;2024-02-23T12:35:13;1.20;;;0.50;;
36817;SDS011;22761;51.542;16.450;2024-02-23T12:37:43;0.60;;;0.40;;
36817;SDS011;22761;51.542;16.450;2024-02-23T12:40:13;3.40;;;1.00;;
36817;SDS011;22761;51.542;16.450;2024-02-23T12:42:41;3.40;;;1.40;;
36817;SDS011;22761;51.542;16.450;2024-02-23T12:45:10;2.00;;;0.70;;
36817;SDS011;22761;51.542;16.450;2024-02-23T12:47:39;1.30;;;0.70;;
36817;SDS011;22761;51.542;16.450;2024-02-23T12:50:07;2.90;;;0.90;;
36817;SDS011;22761;51.542;16.450;2024-02-23T12:52:36;2.50;;;0.90;;
36817;SDS011;22761;51.542;16.450;2024-02-23T12:55:05;1.30;;;0.70;;
36817;SDS011;22761;51.542;16.450;2024-02-23T12:57:33;2.70;;;0.50;;
36817;SDS011;22761;51.542;16.450;2024-02-23T13:00:01;1.10;;;0.60;;
36817;SDS011;22761;51.542;16.450;2024-02-23T13:02:30;1.50;;;0.60;;
36817;SDS011;22761;51.542;16.450;2024-02-23T13:04:59;2.70;;;0.90;;
36817;SDS011;22761;51.542;16.450;2024-02-23T13:07:27;21.20;;;10.10;;
36817;SDS011;22761;51.542;16.450;2024-02-23T13:09:58;4.40;;;2.30;;
36817;SDS011;22761;51.542;16.450;2024-02-23T13:12:27;23.40;;;14.40;;
36817;SDS011;22761;51.542;16.450;2024-02-23T13:14:55;17.80;;;8.20;;
36817;SDS011;22761;51.542;16.450;2024-02-23T13:17:24;23.60;;;9.80;;
36817;SDS011;22761;51.542;16.450;2024-02-23T13:19:52;2.40;;;1.30;;
36817;SDS011;22761;51.542;16.450;2024-02-23T13:22:38;3.80;;;1.20;;
36817;SDS011;22761;51.542;16.450;2024-02-23T13:25:06;4.30;;;1.60;;
36817;SDS011;22761;51.542;16.450;2024-02-23T13:27:35;2.80;;;1.00;;
36817;SDS011;22761;51.542;16.450;2024-02-23T13:30:03;1.80;;;0.60;;
36817;SDS011;22761;51.542;16.450;2024-02-23T13:32:32;1.70;;;0.80;;
36817;SDS011;22761;51.542;16.450;2024-02-23T13:35:01;1.90;;;0.60;;
36817;SDS011;22761;51.542;16.450;2024-02-23T13:37:32;2.00;;;0.70;;
36817;SDS011;22761;51.542;16.450;2024-02-23T13:40:01;2.90;;;0.60;;
36817;SDS011;22761;51.542;16.450;2024-02-23T13:42:30;3.70;;;1.00;;
36817;SDS011;22761;51.542;16.450;2024-02-23T13:44:58;3.00;;;0.60;;
36817;SDS011;22761;51.542;16.450;2024-02-23T13:47:28;1.50;;;1.00;;
36817;SDS011;22761;51.542;16.450;2024-02-23T13:49:56;1.80;;;0.60;;
36817;SDS011;22761;51.542;16.450;2024-02-23T13:52:25;1.20;;;0.40;;
36817;SDS011;22761;51.542;16.450;2024-02-23T13:54:53;0.80;;;0.40;;
36817;SDS011;22761;51.542;16.450;2024-02-23T13:57:21;2.90;;;0.80;;
36817;SDS011;22761;51.542;16.450;2024-02-23T13:59:50;0.50;;;0.40;;
36817;SDS011;22761;51.542;16.450;2024-02-23T14:02:24;1.90;;;0.90;;
36817;SDS011;22761;51.542;16.450;2024-02-23T14:05:01;3.90;;;1.40;;
36817;SDS011;22761;51.542;16.450;2024-02-23T14:07:34;4.20;;;1.40;;
36817;SDS011;22761;51.542;16.450;2024-02-23T14:10:03;3.00;;;1.40;;
36817;SDS011;22761;51.542;16.450;2024-02-23T14:12:32;2.80;;;1.50;;
36817;SDS011;22761;51.542;16.450;2024-02-23T14:15:00;3.80;;;1.70;;
36817;SDS011;22761;51.542;16.450;2024-02-23T14:17:29;2.80;;;0.90;;
36817;SDS011;22761;51.542;16.450;2024-02-23T14:19:57;1.60;;;0.80;;
36817;SDS011;22761;51.542;16.450;2024-02-23T14:22:26;4.40;;;1.20;;
36817;SDS011;22761;51.542;16.450;2024-02-23T14:24:57;2.90;;;1.40;;
36817;SDS011;22761;51.542;16.450;2024-02-23T14:27:26;6.90;;;3.10;;
36817;SDS011;22761;51.542;16.450;2024-02-23T14:29:59;5.90;;;3.80;;
36817;SDS011;22761;51.542;16.450;2024-02-23T14:32:27;8.60;;;4.50;;
36817;SDS011;22761;51.542;16.450;2024-02-23T14:34:56;12.00;;;6.40;;
36817;SDS011;22761;51.542;16.450;2024-02-23T14:37:25;32.50;;;17.70;;
36817;SDS011;22761;51.542;16.450;2024-02-23T14:39:54;30.30;;;17.10;;
36817;SDS011;22761;51.542;16.450;2024-02-23T14:42:22;18.40;;;10.40;;
36817;SDS011;22761;51.542;16.450;2024-02-23T14:44:50;25.70;;;17.80;;
36817;SDS011;22761;51.542;16.450;2024-02-23T14:47:18;6.20;;;4.40;;
36817;SDS011;22761;51.542;16.450;2024-02-23T14:49:55;6.50;;;3.90;;
36817;SDS011;22761;51.542;16.450;2024-02-23T14:52:24;7.20;;;4.00;;
36817;SDS011;22761;51.542;16.450;2024-02-23T14:54:52;10.60;;;6.30;;